createdAt,value
2022-09-23T00:00:05.071Z,101486.56
2022-09-23T00:01:37.274Z,101477.84
2022-09-23T00:03:09.297Z,101483.97
2022-09-23T00:04:42.188Z,101487.63
2022-09-23T00:06:15.305Z,101477.06
2022-09-23T00:07:49.124Z,101476.25
2022-09-23T00:09:20.614Z,101479.75
2022-09-23T00:10:52.401Z,101486.81
2022-09-23T00:12:23.864Z,101474.56
2022-09-23T00:13:56.352Z,101484.22
2022-09-23T00:15:29.954Z,101485.13
2022-09-23T00:17:01.481Z,101474.56
2022-09-23T00:18:33.373Z,101480.66
2022-09-23T00:20:05.299Z,101475.38
2022-09-23T00:21:36.853Z,101475.31
2022-09-23T00:23:09.692Z,101473.53
2022-09-23T00:24:41.138Z,101475.31
2022-09-23T00:26:14.071Z,101473.50
2022-09-23T00:27:45.518Z,101473.38
2022-09-23T00:29:16.935Z,101475.09
2022-09-23T00:30:48.445Z,101467.28
2022-09-23T00:32:19.940Z,101467.41
2022-09-23T00:33:55.051Z,101465.78
2022-09-23T00:35:26.543Z,101464.97
2022-09-23T00:36:58.024Z,101464.16
2022-09-23T00:38:31.169Z,101469.44
2022-09-23T00:40:02.793Z,101471.25
2022-09-23T00:41:35.197Z,101464.31
2022-09-23T00:43:06.624Z,101462.59
2022-09-23T00:44:42.061Z,101469.66
2022-09-23T00:46:16.646Z,101464.38
2022-09-23T00:47:51.164Z,101469.66
2022-09-23T00:49:26.663Z,101472.34
2022-09-23T00:50:58.718Z,101469.75
2022-09-23T00:52:32.147Z,101464.56
2022-09-23T00:54:06.332Z,101461.06
2022-09-23T00:55:39.406Z,101454.13
2022-09-23T00:57:11.209Z,101466.50
2022-09-23T00:58:44.571Z,101451.66
2022-09-23T01:00:16.186Z,101454.34
2022-09-23T01:01:49.537Z,101457.06
2022-09-23T01:03:22.945Z,101459.75
2022-09-23T01:04:54.553Z,101462.44
2022-09-23T01:06:26.290Z,101453.75
2022-09-23T01:07:59.002Z,101463.44
2022-09-23T01:09:31.895Z,101467.81
2022-09-23T01:11:10.064Z,101457.25
2022-09-23T01:12:48.051Z,101456.34
2022-09-23T01:14:28.652Z,101449.34
2022-09-23T01:16:05.695Z,101451.06
2022-09-23T01:17:40.249Z,101456.41
2022-09-23T01:19:22.303Z,101453.75
2022-09-23T01:21:01.540Z,101450.22
2022-09-23T01:22:37.018Z,101449.34
2022-09-23T01:24:29.457Z,101444.97
2022-09-23T01:26:10.099Z,101451.16
2022-09-23T01:27:50.260Z,101445.09
2022-09-23T01:29:33.311Z,101439.88
2022-09-23T01:31:09.527Z,101444.28
2022-09-23T01:32:49.299Z,101442.56
2022-09-23T01:34:24.158Z,101442.63
2022-09-23T01:36:09.891Z,101443.53
2022-09-23T01:37:45.968Z,101439.09
2022-09-23T01:39:22.157Z,101434.75
2022-09-23T01:40:59.833Z,101433.06
2022-09-23T01:42:33.649Z,101430.47
2022-09-23T01:44:08.332Z,101436.66
2022-09-23T01:45:43.467Z,101426.16
2022-09-23T01:47:18.546Z,101428.78
2022-09-23T01:48:51.814Z,101429.78
2022-09-23T01:50:44.570Z,101440.34
2022-09-23T01:52:18.265Z,101433.28
2022-09-23T01:53:53.221Z,101430.69
2022-09-23T01:55:26.871Z,101431.66
2022-09-23T01:57:01.283Z,101428.16
2022-09-23T01:58:36.219Z,101432.56
2022-09-23T02:00:10.769Z,101433.44
2022-09-23T02:01:48.086Z,101425.50
2022-09-23T02:03:26.752Z,101434.25
2022-09-23T02:05:02.354Z,101429.84
2022-09-23T02:06:36.290Z,101424.56
2022-09-23T02:08:13.100Z,101428.22
2022-09-23T02:09:47.562Z,101420.38
2022-09-23T02:11:18.984Z,101412.56
2022-09-23T02:12:52.915Z,101422.22
2022-09-23T02:14:25.227Z,101422.22
2022-09-23T02:16:00.957Z,101414.34
2022-09-23T02:17:35.471Z,101418.88
2022-09-23T02:19:11.490Z,101423.34
2022-09-23T02:20:43.253Z,101416.44
2022-09-23T02:22:16.853Z,101414.69
2022-09-23T02:23:50.639Z,101412.06
2022-09-23T02:25:25.913Z,101414.69
2022-09-23T02:27:02.101Z,101417.34
2022-09-23T02:28:37.675Z,101412.97
2022-09-23T02:30:11.524Z,101417.38
2022-09-23T02:31:45.361Z,101412.97
2022-09-23T02:33:20.257Z,101409.53
2022-09-23T02:34:56.996Z,101409.47
2022-09-23T02:36:31.416Z,101408.59
2022-09-23T02:38:10.674Z,101406.97
2022-09-23T02:39:49.655Z,101407.91
2022-09-23T02:41:26.477Z,101409.69
2022-09-23T02:43:02.642Z,101406.13
2022-09-23T02:44:34.109Z,101408.78
2022-09-23T02:46:06.020Z,101402.63
2022-09-23T02:47:39.648Z,101402.63
2022-09-23T02:49:12.744Z,101397.47
2022-09-23T02:50:47.631Z,101401.91
2022-09-23T02:52:19.152Z,101396.72
2022-09-23T02:53:51.080Z,101404.63
2022-09-23T02:55:24.515Z,101396.72
2022-09-23T02:56:57.276Z,101397.69
2022-09-23T02:58:29.789Z,101396.81
2022-09-23T03:00:02.161Z,101394.25
2022-09-23T03:01:39.548Z,101397.69
2022-09-23T03:03:16.276Z,101389.91
2022-09-23T03:04:53.460Z,101394.34
2022-09-23T03:06:28.615Z,101379.50
2022-09-23T03:08:07.104Z,101396.22
2022-09-23T03:09:41.432Z,101387.44
2022-09-23T03:11:13.649Z,101391.84
2022-09-23T03:12:52.785Z,101385.72
2022-09-23T03:14:28.844Z,101390.13
2022-09-23T03:16:02.211Z,101387.53
2022-09-23T03:17:39.098Z,101380.50
2022-09-23T03:19:19.877Z,101381.41
2022-09-23T03:20:52.717Z,101383.13
2022-09-23T03:22:29.703Z,101375.22
2022-09-23T03:24:04.041Z,101376.94
2022-09-23T03:25:36.890Z,101372.50
2022-09-23T03:27:13.658Z,101374.22
2022-09-23T03:28:45.704Z,101375.09
2022-09-23T03:30:18.017Z,101375.03
2022-09-23T03:31:49.661Z,101372.44
2022-09-23T03:33:28.524Z,101383.00
2022-09-23T03:35:01.544Z,101376.91
2022-09-23T03:37:00.537Z,101377.00
2022-09-23T03:38:37.883Z,101378.81
2022-09-23T03:40:12.934Z,101375.25
2022-09-23T03:41:49.217Z,101377.03
2022-09-23T03:43:20.777Z,101382.47
2022-09-23T03:44:54.234Z,101372.84
2022-09-23T03:46:26.483Z,101369.34
2022-09-23T03:47:57.959Z,101367.63
2022-09-23T03:49:33.336Z,101362.34
2022-09-23T03:51:13.947Z,101378.97
2022-09-23T03:52:46.319Z,101373.66
2022-09-23T03:54:20.292Z,101377.94
2022-09-23T03:55:51.719Z,101376.09
2022-09-23T03:57:23.605Z,101378.69
2022-09-23T03:58:55.038Z,101369.88
2022-09-23T04:00:27.212Z,101366.38
2022-09-23T04:02:02.440Z,101359.38
2022-09-23T04:03:33.983Z,101362.03
2022-09-23T04:05:05.696Z,101357.78
2022-09-23T04:06:37.154Z,101353.38
2022-09-23T04:08:08.859Z,101345.53
2022-09-23T04:09:41.919Z,101346.50
2022-09-23T04:11:13.385Z,101343.94
2022-09-23T04:12:44.795Z,101343.16
2022-09-23T04:14:16.900Z,101345.84
2022-09-23T04:15:49.682Z,101341.53
2022-09-23T04:17:21.110Z,101344.34
2022-09-23T04:18:52.575Z,101337.47
2022-09-23T04:20:24.092Z,101342.81
2022-09-23T04:21:55.594Z,101342.94
2022-09-23T04:23:27.156Z,101341.31
2022-09-23T04:24:59.958Z,101338.66
2022-09-23T04:26:31.587Z,101349.16
2022-09-23T04:28:03.019Z,101348.25
2022-09-23T04:29:34.465Z,101340.31
2022-09-23T04:31:06.697Z,101339.38
2022-09-23T04:32:38.269Z,101335.03
2022-09-23T04:34:09.718Z,101343.84
2022-09-23T04:35:42.987Z,101336.84
2022-09-23T04:37:14.487Z,101334.25
2022-09-23T04:38:46.426Z,101331.69
2022-09-23T04:40:19.240Z,101337.75
2022-09-23T04:41:50.745Z,101332.50
2022-09-23T04:43:23.377Z,101321.97
2022-09-23T04:44:54.812Z,101326.38
2022-09-23T04:46:26.383Z,101327.28
2022-09-23T04:47:58.396Z,101321.13
2022-09-23T04:49:33.743Z,101320.28
2022-09-23T04:51:06.375Z,101319.47
2022-09-23T04:52:37.874Z,101322.13
2022-09-23T04:54:10.481Z,101319.53
2022-09-23T04:55:43.508Z,101318.72
2022-09-23T04:57:14.947Z,101314.44
2022-09-23T04:58:46.636Z,101315.34
2022-09-23T05:00:18.167Z,101313.56
2022-09-23T05:01:51.742Z,101307.31
2022-09-23T05:03:23.903Z,101316.03
2022-09-23T05:04:55.527Z,101317.78
2022-09-23T05:06:27.108Z,101322.13
2022-09-23T05:07:58.555Z,101326.53
2022-09-23T05:09:30.102Z,101316.91
2022-09-23T05:11:04.895Z,101322.13
2022-09-23T05:12:36.398Z,101324.72
2022-09-23T05:14:07.984Z,101317.69
2022-09-23T05:15:39.427Z,101318.59
2022-09-23T05:17:11.743Z,101325.63
2022-09-23T05:18:43.956Z,101311.59
2022-09-23T05:20:15.476Z,101326.50
2022-09-23T05:21:46.956Z,101327.41
2022-09-23T05:23:18.438Z,101327.41
2022-09-23T05:24:49.901Z,101327.44
2022-09-23T05:26:25.231Z,101336.28
2022-09-23T05:27:56.716Z,101335.50
2022-09-23T05:29:29.127Z,101332.97
2022-09-23T05:31:04.870Z,101332.06
2022-09-23T05:32:36.391Z,101338.19
2022-09-23T05:34:07.906Z,101342.59
2022-09-23T05:35:40.006Z,101338.94
2022-09-23T05:37:11.512Z,101336.28
2022-09-23T05:38:43.616Z,101334.56
2022-09-23T05:40:15.210Z,101326.75
2022-09-23T05:41:48.952Z,101332.88
2022-09-23T05:43:20.612Z,101337.19
2022-09-23T05:44:52.259Z,101335.50
2022-09-23T05:46:24.842Z,101335.50
2022-09-23T05:47:56.412Z,101340.78
2022-09-23T05:49:48.299Z,101340.78
2022-09-23T05:51:20.012Z,101339.00
2022-09-23T05:52:52.169Z,101331.03
2022-09-23T05:54:23.611Z,101342.34
2022-09-23T05:55:55.096Z,101336.13
2022-09-23T05:57:27.918Z,101332.53
2022-09-23T05:59:00.302Z,101337.81
2022-09-23T06:00:31.888Z,101338.59
2022-09-23T06:02:03.511Z,101334.09
2022-09-23T06:03:35.252Z,101344.50
2022-09-23T06:05:06.921Z,101332.13
2022-09-23T06:06:39.166Z,101332.84
2022-09-23T06:08:11.001Z,101340.53
2022-09-23T06:09:42.482Z,101338.69
2022-09-23T06:11:14.207Z,101341.19
2022-09-23T06:12:47.024Z,101335.00
2022-09-23T06:14:18.988Z,101341.00
2022-09-23T06:15:50.506Z,101340.97
2022-09-23T06:17:21.989Z,101336.50
2022-09-23T06:18:53.454Z,101334.69
2022-09-23T06:20:24.950Z,101329.41
2022-09-23T06:21:56.472Z,101333.69
2022-09-23T06:23:28.308Z,101336.28
2022-09-23T06:24:59.803Z,101336.16
2022-09-23T06:26:33.685Z,101333.47
2022-09-23T06:28:10.729Z,101321.09
2022-09-23T06:29:42.225Z,101320.00
2022-09-23T06:31:15.221Z,101325.91
2022-09-23T06:32:48.006Z,101323.13
2022-09-23T06:34:20.054Z,101329.22
2022-09-23T06:35:59.490Z,101331.81
2022-09-23T06:37:32.385Z,101333.53
2022-09-23T06:39:03.999Z,101339.69
2022-09-23T06:40:35.516Z,101337.72
2022-09-23T06:42:07.624Z,101335.00
2022-09-23T06:43:40.438Z,101337.47
2022-09-23T06:45:12.986Z,101337.28
2022-09-23T06:46:44.564Z,101337.94
2022-09-23T06:48:16.069Z,101339.56
2022-09-23T06:49:47.899Z,101332.53
2022-09-23T06:51:19.417Z,101331.53
2022-09-23T06:52:51.815Z,101336.81
2022-09-23T06:54:23.273Z,101338.44
2022-09-23T06:55:57.877Z,101335.63
2022-09-23T06:57:29.598Z,101332.66
2022-09-23T06:59:02.415Z,101330.63
2022-09-23T07:00:33.861Z,101327.69
2022-09-23T07:02:05.420Z,101335.50
2022-09-23T07:03:38.144Z,101329.97
2022-09-23T07:05:09.681Z,101333.28
2022-09-23T07:06:41.115Z,101333.00
2022-09-23T07:08:12.709Z,101335.28
2022-09-23T07:09:44.469Z,101328.97
2022-09-23T07:11:16.203Z,101336.75
2022-09-23T07:12:47.633Z,101337.56
2022-09-23T07:14:20.406Z,101339.28
2022-09-23T07:15:52.623Z,101340.97
2022-09-23T07:17:27.202Z,101341.00
2022-09-23T07:18:58.852Z,101339.19
2022-09-23T07:20:30.776Z,101343.44
2022-09-23T07:22:02.207Z,101337.84
2022-09-23T07:23:34.085Z,101328.94
2022-09-23T07:25:06.203Z,101337.50
2022-09-23T07:26:40.122Z,101334.84
2022-09-23T07:28:15.022Z,101335.59
2022-09-23T07:29:49.057Z,101339.06
2022-09-23T07:31:34.169Z,101346.06
2022-09-23T07:33:25.816Z,101342.34
2022-09-23T07:35:01.213Z,101347.31
2022-09-23T07:36:32.819Z,101345.47
2022-09-23T07:38:04.501Z,101337.41
2022-09-23T07:39:36.641Z,101340.75
2022-09-23T07:41:09.230Z,101345.13
2022-09-23T07:42:40.796Z,101345.81
2022-09-23T07:44:12.302Z,101336.91
2022-09-23T07:45:45.400Z,101341.97
2022-09-23T07:47:17.147Z,101334.84
2022-09-23T07:48:48.628Z,101335.69
2022-09-23T07:50:20.095Z,101336.41
2022-09-23T07:51:52.833Z,101339.84
2022-09-23T07:53:24.367Z,101336.28
2022-09-23T07:54:55.803Z,101329.94
2022-09-23T07:56:29.293Z,101333.41
2022-09-23T07:58:00.798Z,101336.84
2022-09-23T07:59:32.302Z,101341.06
2022-09-23T08:01:06.753Z,101346.16
2022-09-23T08:02:39.429Z,101343.59
2022-09-23T08:04:13.107Z,101343.59
2022-09-23T08:05:46.384Z,101341.88
2022-09-23T08:07:17.928Z,101333.00
2022-09-23T08:08:53.189Z,101345.13
2022-09-23T08:10:24.975Z,101339.69
2022-09-23T08:11:56.479Z,101341.16
2022-09-23T08:13:27.993Z,101334.59
2022-09-23T08:15:00.410Z,101342.22
2022-09-23T08:16:33.210Z,101344.53
2022-09-23T08:18:04.829Z,101341.56
2022-09-23T08:19:36.273Z,101350.78
2022-09-23T08:21:07.729Z,101340.50
2022-09-23T08:22:39.290Z,101330.19
2022-09-23T08:24:13.047Z,101335.94
2022-09-23T08:25:47.634Z,101330.94
2022-09-23T08:27:19.121Z,101332.00
2022-09-23T08:28:53.788Z,101331.63
2022-09-23T08:30:25.399Z,101327.78
2022-09-23T08:31:58.308Z,101324.00
2022-09-23T08:33:29.838Z,101326.25
2022-09-23T08:35:01.296Z,101327.84
2022-09-23T08:36:32.754Z,101320.56
2022-09-23T08:38:04.200Z,101318.00
2022-09-23T08:39:35.622Z,101319.00
2022-09-23T08:41:09.319Z,101324.25
2022-09-23T08:42:41.755Z,101321.53
2022-09-23T08:44:16.398Z,101321.44
2022-09-23T08:45:48.080Z,101333.00
2022-09-23T08:47:24.815Z,101333.06
2022-09-23T08:48:56.507Z,101335.06
2022-09-23T08:50:30.096Z,101322.25
2022-09-23T08:52:06.751Z,101332.22
2022-09-23T08:53:38.733Z,101322.63
2022-09-23T08:55:11.911Z,101318.97
2022-09-23T08:56:44.728Z,101328.72
2022-09-23T08:58:35.057Z,101328.84
2022-09-23T09:00:07.047Z,101328.00
2022-09-23T09:01:41.395Z,101327.06
2022-09-23T09:03:19.618Z,101329.50
2022-09-23T09:04:53.689Z,101335.59
2022-09-23T09:06:27.864Z,101321.47
2022-09-23T09:08:00.507Z,101317.91
2022-09-23T09:09:33.756Z,101318.44
2022-09-23T09:11:06.063Z,101320.75
2022-09-23T09:12:40.915Z,101319.38
2022-09-23T09:14:17.374Z,101318.84
2022-09-23T09:15:55.179Z,101322.28
2022-09-23T09:17:35.291Z,101320.28
2022-09-23T09:19:13.338Z,101327.91
2022-09-23T09:20:49.444Z,101329.41
2022-09-23T09:22:26.238Z,101322.16
2022-09-23T09:23:59.995Z,101328.06
2022-09-23T09:25:39.904Z,101319.09
2022-09-23T09:27:12.668Z,101318.94
2022-09-23T09:28:47.532Z,101316.84
2022-09-23T09:30:19.520Z,101316.53
2022-09-23T09:31:51.034Z,101314.16
2022-09-23T09:33:26.387Z,101302.13
2022-09-23T09:35:00.887Z,101312.97
2022-09-23T09:36:36.040Z,101298.38
2022-09-23T09:38:07.821Z,101301.22
2022-09-23T09:39:39.396Z,101303.47
2022-09-23T09:41:13.653Z,101298.69
2022-09-23T09:42:47.201Z,101295.75
2022-09-23T09:44:24.133Z,101294.81
2022-09-23T09:46:03.393Z,101296.47
2022-09-23T09:47:40.493Z,101298.97
2022-09-23T09:49:13.915Z,101292.34
2022-09-23T09:50:49.038Z,101298.03
2022-09-23T09:52:22.542Z,101291.56
2022-09-23T09:53:55.946Z,101293.72
2022-09-23T09:55:28.496Z,101294.13
2022-09-23T09:57:03.729Z,101297.22
2022-09-23T09:58:43.699Z,101296.09
2022-09-23T10:00:34.381Z,101289.53
2022-09-23T10:02:12.848Z,101288.31
2022-09-23T10:03:44.745Z,101283.84
2022-09-23T10:05:25.883Z,101282.03
2022-09-23T10:07:07.067Z,101290.69
2022-09-23T10:08:38.502Z,101287.84
2022-09-23T10:10:31.820Z,101277.91
2022-09-23T10:12:13.017Z,101289.56
2022-09-23T10:14:01.355Z,101287.25
2022-09-23T10:15:44.485Z,101279.66
2022-09-23T10:17:19.273Z,101286.53
2022-09-23T10:18:53.336Z,101291.38
2022-09-23T10:20:24.850Z,101279.53
2022-09-23T10:21:59.808Z,101289.03
2022-09-23T10:23:33.348Z,101285.25
2022-09-23T10:25:07.748Z,101287.66
2022-09-23T10:26:43.243Z,101288.50
2022-09-23T10:28:32.165Z,101290.31
2022-09-23T10:30:05.487Z,101289.44
2022-09-23T10:31:38.358Z,101291.25
2022-09-23T10:33:26.132Z,101289.44
2022-09-23T10:34:59.007Z,101284.59
2022-09-23T10:36:32.548Z,101282.44
2022-09-23T10:38:04.087Z,101282.19
2022-09-23T10:39:55.315Z,101277.59
2022-09-23T10:41:49.632Z,101277.25
2022-09-23T10:43:45.642Z,101275.06
2022-09-23T10:45:39.690Z,101276.41
2022-09-23T10:47:20.104Z,101269.53
2022-09-23T10:48:58.025Z,101270.38
2022-09-23T10:50:34.858Z,101272.78
2022-09-23T10:52:14.727Z,101274.50
2022-09-23T10:53:53.312Z,101268.22
2022-09-23T10:55:36.882Z,101268.69
2022-09-23T10:57:36.274Z,101256.91
2022-09-23T10:59:27.966Z,101267.88
2022-09-23T11:01:05.238Z,101266.25
2022-09-23T11:02:47.580Z,101264.34
2022-09-23T11:04:35.856Z,101263.47
2022-09-23T11:06:13.152Z,101261.38
2022-09-23T11:07:47.417Z,101258.47
2022-09-23T11:09:27.625Z,101256.91
2022-09-23T11:11:09.914Z,101255.09
2022-09-23T11:12:48.117Z,101252.88
2022-09-23T11:14:28.351Z,101254.84
2022-09-23T11:16:02.882Z,101257.88
2022-09-23T11:17:52.000Z,101246.84
2022-09-23T11:19:44.727Z,101245.22
2022-09-23T11:21:26.437Z,101248.66
2022-09-23T11:23:10.304Z,101249.00
2022-09-23T11:24:51.972Z,101239.69
2022-09-23T11:26:32.900Z,101233.59
2022-09-23T11:28:20.700Z,101243.56
2022-09-23T11:29:58.212Z,101237.59
2022-09-23T11:31:37.295Z,101242.00
2022-09-23T11:33:18.245Z,101232.63
2022-09-23T11:34:58.116Z,101229.25
2022-09-23T11:36:32.701Z,101229.84
2022-09-23T11:38:07.904Z,101230.59
2022-09-23T11:39:44.066Z,101226.88
2022-09-23T11:41:18.557Z,101226.34
2022-09-23T11:42:53.628Z,101218.44
2022-09-23T11:44:28.364Z,101229.13
2022-09-23T11:46:02.931Z,101217.22
2022-09-23T11:47:39.831Z,101228.25
2022-09-23T11:49:15.869Z,101225.91
2022-09-23T11:50:49.966Z,101219.59
2022-09-23T11:52:24.826Z,101209.34
2022-09-23T11:53:59.674Z,101217.63
2022-09-23T11:55:33.493Z,101212.38
2022-09-23T11:57:09.186Z,101209.59
2022-09-23T11:58:50.019Z,101209.50
2022-09-23T12:00:27.834Z,101202.00
2022-09-23T12:02:14.210Z,101209.50
2022-09-23T12:03:51.974Z,101208.34
2022-09-23T12:05:24.548Z,101199.13
2022-09-23T12:07:00.995Z,101208.44
2022-09-23T12:08:33.360Z,101207.06
2022-09-23T12:10:06.300Z,101203.88
2022-09-23T12:11:40.438Z,101201.22
2022-09-23T12:13:16.089Z,101203.44
2022-09-23T12:14:55.678Z,101197.56
2022-09-23T12:16:45.275Z,101199.16
2022-09-23T12:18:23.433Z,101193.06
2022-09-23T12:20:22.205Z,101189.22
2022-09-23T12:22:06.857Z,101195.75
2022-09-23T12:23:48.724Z,101190.63
2022-09-23T12:25:33.442Z,101193.72
2022-09-23T12:27:07.050Z,101191.28
2022-09-23T12:28:40.842Z,101192.25
2022-09-23T12:30:14.872Z,101191.47
2022-09-23T12:31:46.866Z,101182.69
2022-09-23T12:33:24.405Z,101197.88
2022-09-23T12:34:56.223Z,101188.03
2022-09-23T12:36:29.932Z,101183.56
2022-09-23T12:38:01.757Z,101187.88
2022-09-23T12:39:35.435Z,101186.97
2022-09-23T12:41:19.251Z,101190.91
2022-09-23T12:42:51.421Z,101192.09
2022-09-23T12:44:31.469Z,101194.84
2022-09-23T12:46:20.641Z,101182.06
2022-09-23T12:47:52.342Z,101177.13
2022-09-23T12:49:27.495Z,101186.94
2022-09-23T12:51:12.798Z,101190.91
2022-09-23T12:52:44.225Z,101183.88
2022-09-23T12:54:22.267Z,101183.09
2022-09-23T12:55:54.250Z,101185.03
2022-09-23T12:57:40.674Z,101187.91
2022-09-23T12:59:21.432Z,101181.59
2022-09-23T13:01:06.151Z,101177.31
2022-09-23T13:02:40.720Z,101177.13
2022-09-23T13:04:51.034Z,101184.81
2022-09-23T13:06:41.105Z,101176.50
2022-09-23T13:08:15.059Z,101172.22
2022-09-23T13:09:48.265Z,101174.44
2022-09-23T13:11:22.728Z,101175.09
2022-09-23T13:12:55.797Z,101170.06
2022-09-23T13:14:29.254Z,101172.72
2022-09-23T13:16:11.661Z,101168.03
2022-09-23T13:17:44.566Z,101169.53
2022-09-23T13:19:35.325Z,101172.13
2022-09-23T13:21:16.223Z,101164.63
2022-09-23T13:23:04.022Z,101168.81
2022-09-23T13:24:45.847Z,101157.47
2022-09-23T13:26:17.772Z,101169.88
2022-09-23T13:27:50.498Z,101167.50
2022-09-23T13:29:23.802Z,101168.34
2022-09-23T13:30:55.628Z,101168.16
2022-09-23T13:32:29.423Z,101160.78
2022-09-23T13:34:05.386Z,101161.66
2022-09-23T13:35:38.203Z,101164.22
2022-09-23T13:37:22.171Z,101164.13
2022-09-23T13:39:12.966Z,101159.72
2022-09-23T13:40:44.985Z,101165.16
2022-09-23T13:42:22.263Z,101157.56
2022-09-23T13:43:56.655Z,101155.25
2022-09-23T13:45:30.921Z,101157.38
2022-09-23T13:47:03.235Z,101156.50
2022-09-23T13:48:34.691Z,101159.94
2022-09-23T13:50:13.124Z,101154.59
2022-09-23T13:51:45.176Z,101155.75
2022-09-23T13:53:20.467Z,101156.72
2022-09-23T13:54:52.294Z,101155.34
2022-09-23T13:56:24.844Z,101156.81
2022-09-23T13:57:57.307Z,101151.63
2022-09-23T13:59:29.631Z,101151.28
2022-09-23T14:01:01.214Z,101161.84
2022-09-23T14:02:32.794Z,101157.38
2022-09-23T14:04:04.604Z,101154.50
2022-09-23T14:05:38.330Z,101146.38
2022-09-23T14:07:11.050Z,101145.31
2022-09-23T14:08:44.862Z,101149.25
2022-09-23T14:10:18.957Z,101130.34
2022-09-23T14:11:51.807Z,101133.56
2022-09-23T14:13:26.069Z,101136.94
2022-09-23T14:14:57.864Z,101137.09
2022-09-23T14:16:29.583Z,101128.94
2022-09-23T14:18:02.797Z,101123.59
2022-09-23T14:19:35.236Z,101122.63
2022-09-23T14:21:25.827Z,101122.63
2022-09-23T14:23:04.734Z,101126.16
2022-09-23T14:24:36.979Z,101125.00
2022-09-23T14:26:08.478Z,101124.78
2022-09-23T14:27:40.790Z,101125.53
2022-09-23T14:29:14.121Z,101129.09
2022-09-23T14:30:48.117Z,101117.09
2022-09-23T14:32:21.142Z,101113.66
2022-09-23T14:33:52.706Z,101118.06
2022-09-23T14:35:26.972Z,101119.00
2022-09-23T14:37:27.565Z,101122.63
2022-09-23T14:39:03.319Z,101114.53
2022-09-23T14:40:36.005Z,101110.16
2022-09-23T14:42:07.743Z,101106.63
2022-09-23T14:43:39.878Z,101110.06
2022-09-23T14:45:14.187Z,101101.09
2022-09-23T14:46:52.011Z,101107.38
2022-09-23T14:48:25.018Z,101110.06
2022-09-23T14:50:15.141Z,101099.69
2022-09-23T14:51:48.333Z,101100.66
2022-09-23T14:53:37.806Z,101097.97
2022-09-23T14:55:15.255Z,101101.50
2022-09-23T14:56:47.235Z,101098.97
2022-09-23T14:58:19.912Z,101094.47
2022-09-23T14:59:52.948Z,101089.34
2022-09-23T15:01:34.990Z,101097.47
2022-09-23T15:03:14.585Z,101097.88
2022-09-23T15:04:46.064Z,101096.19
2022-09-23T15:06:17.750Z,101092.66
2022-09-23T15:07:50.584Z,101081.22
2022-09-23T15:09:25.980Z,101085.09
2022-09-23T15:10:58.399Z,101085.41
2022-09-23T15:12:29.965Z,101085.81
2022-09-23T15:14:14.183Z,101079.97
2022-09-23T15:15:55.073Z,101080.81
2022-09-23T15:17:30.426Z,101088.06
2022-09-23T15:19:02.024Z,101083.56
2022-09-23T15:20:34.322Z,101084.34
2022-09-23T15:22:07.693Z,101084.44
2022-09-23T15:23:46.738Z,101086.16
2022-09-23T15:25:21.328Z,101091.59
2022-09-23T15:26:57.713Z,101086.25
2022-09-23T15:28:29.154Z,101091.47
2022-09-23T15:30:03.605Z,101086.16
2022-09-23T15:31:35.241Z,101087.84
2022-09-23T15:33:06.806Z,101079.63
2022-09-23T15:34:38.319Z,101083.03
2022-09-23T15:36:15.333Z,101081.31
2022-09-23T15:37:48.547Z,101080.47
2022-09-23T15:39:20.273Z,101078.88
2022-09-23T15:40:54.118Z,101076.34
2022-09-23T15:42:25.686Z,101083.38
2022-09-23T15:43:58.159Z,101078.88
2022-09-23T15:45:33.166Z,101087.84
2022-09-23T15:47:04.998Z,101081.00
2022-09-23T15:48:38.650Z,101077.78
2022-09-23T15:50:12.118Z,101083.31
2022-09-23T15:51:43.694Z,101084.16
2022-09-23T15:53:17.422Z,101075.53
2022-09-23T15:54:48.934Z,101074.78
2022-09-23T15:56:21.919Z,101069.66
2022-09-23T15:57:53.417Z,101073.28
2022-09-23T15:59:24.935Z,101082.22
2022-09-23T16:00:57.311Z,101074.53
2022-09-23T16:02:32.335Z,101081.66
2022-09-23T16:04:04.663Z,101079.00
2022-09-23T16:05:37.842Z,101083.47
2022-09-23T16:07:14.274Z,101080.94
2022-09-23T16:08:45.810Z,101083.81
2022-09-23T16:10:17.346Z,101076.56
2022-09-23T16:11:52.126Z,101080.94
2022-09-23T16:13:23.798Z,101074.75
2022-09-23T16:14:55.266Z,101077.53
2022-09-23T16:16:27.928Z,101081.25
2022-09-23T16:18:00.018Z,101079.63
2022-09-23T16:19:34.178Z,101084.88
2022-09-23T16:21:07.575Z,101072.41
2022-09-23T16:22:39.303Z,101077.72
2022-09-23T16:24:17.775Z,101080.69
2022-09-23T16:25:49.285Z,101078.31
2022-09-23T16:27:22.466Z,101075.88
2022-09-23T16:28:55.190Z,101066.38
2022-09-23T16:30:27.311Z,101068.38
2022-09-23T16:32:00.972Z,101070.94
2022-09-23T16:33:32.557Z,101073.41
2022-09-23T16:35:08.324Z,101073.31
2022-09-23T16:36:41.859Z,101072.38
2022-09-23T16:38:13.693Z,101083.22
2022-09-23T16:39:45.212Z,101077.25
2022-09-23T16:41:16.798Z,101084.72
2022-09-23T16:42:52.096Z,101076.25
2022-09-23T16:44:23.580Z,101079.22
2022-09-23T16:45:55.126Z,101072.50
2022-09-23T16:47:26.721Z,101077.34
2022-09-23T16:48:58.690Z,101075.94
2022-09-23T16:50:31.825Z,101069.13
2022-09-23T16:52:03.378Z,101075.41
2022-09-23T16:53:35.188Z,101074.53
2022-09-23T16:55:08.641Z,101074.72
2022-09-23T16:56:44.179Z,101076.69
2022-09-23T16:58:17.153Z,101071.56
2022-09-23T17:00:07.264Z,101077.03
2022-09-23T17:01:57.668Z,101077.88
2022-09-23T17:03:41.469Z,101079.69
2022-09-23T17:05:18.398Z,101075.22
2022-09-23T17:06:50.887Z,101072.41
2022-09-23T17:08:22.458Z,101074.13
2022-09-23T17:09:53.973Z,101072.63
2022-09-23T17:11:25.453Z,101067.50
2022-09-23T17:12:58.798Z,101066.56
2022-09-23T17:14:31.625Z,101062.94
2022-09-23T17:16:03.602Z,101069.13
2022-09-23T17:17:38.257Z,101076.25
2022-09-23T17:19:10.826Z,101070.06
2022-09-23T17:20:42.286Z,101071.88
2022-09-23T17:22:14.255Z,101064.75
2022-09-23T17:23:45.888Z,101076.16
2022-09-23T17:25:18.890Z,101069.97
2022-09-23T17:26:53.317Z,101062.09
2022-09-23T17:28:25.116Z,101059.50
2022-09-23T17:29:58.808Z,101061.41
2022-09-23T17:31:30.721Z,101064.38
2022-09-23T17:33:02.251Z,101056.47
2022-09-23T17:34:35.007Z,101053.94
2022-09-23T17:36:07.752Z,101044.72
2022-09-23T17:37:39.537Z,101055.78
2022-09-23T17:39:11.002Z,101057.84
2022-09-23T17:40:49.611Z,101057.19
2022-09-23T17:42:21.152Z,101058.22
2022-09-23T17:44:00.501Z,101067.16
2022-09-23T17:45:36.669Z,101060.03
2022-09-23T17:47:08.233Z,101057.38
2022-09-23T17:48:44.144Z,101062.59
2022-09-23T17:50:15.878Z,101053.66
2022-09-23T17:51:47.871Z,101056.75
2022-09-23T17:53:19.776Z,101063.19
2022-09-23T17:54:51.243Z,101059.69
2022-09-23T17:56:24.897Z,101062.34
2022-09-23T17:57:56.410Z,101064.06
2022-09-23T17:59:27.901Z,101063.97
2022-09-23T18:01:00.908Z,101057.88
2022-09-23T18:02:32.548Z,101057.28